Time;durP1;ratioP1;P1;durP2;ratioP2;P2;SDS_P1;SDS_P2;PMS_P1;PMS_P2;Temp;Humidity;BMP_temperature;BMP_pressure;BME280_temperature;BME280_humidity;BME280_pressure;Samples;Min_cycle;Max_cycle;Signal;HPM_P1;HPM_P2
2022/08/25 00:00:40;;;;;;;4.70;4.07;;;25.80;53.00;;;;;;4953424;29;20428;-48
2022/08/25 00:03:06;;;;;;;4.70;4.07;;;25.80;53.10;;;;;;4953469;29;20494;-48
2022/08/25 00:05:32;;;;;;;4.60;3.60;;;25.70;53.40;;;;;;4953423;29;20435;-47
2022/08/25 00:07:58;;;;;;;3.70;3.40;;;25.60;53.60;;;;;;4953758;29;20503;-48
2022/08/25 00:10:24;;;;;;;4.10;3.80;;;25.40;54.00;;;;;;4953422;29;20288;-48
2022/08/25 00:12:50;;;;;;;4.73;4.27;;;25.40;54.20;;;;;;4953443;29;20479;-48
2022/08/25 00:15:16;;;;;;;3.93;3.63;;;25.40;54.40;;;;;;4952933;28;20246;-46
2022/08/25 00:17:41;;;;;;;4.07;3.77;;;25.40;54.40;;;;;;4953506;29;21019;-48
2022/08/25 00:20:08;;;;;;;5.40;3.70;;;25.40;54.50;;;;;;4951130;29;20371;-49
2022/08/25 00:22:34;;;;;;;3.83;3.53;;;25.30;54.60;;;;;;4952425;28;20613;-48
2022/08/25 00:25:00;;;;;;;4.37;4.00;;;25.20;54.70;;;;;;4952935;29;20471;-46
2022/08/25 00:27:26;;;;;;;4.00;3.70;;;25.00;55.10;;;;;;4953231;29;20420;-48
2022/08/25 00:29:52;;;;;;;3.80;3.50;;;24.80;55.60;;;;;;4952655;29;20291;-49
2022/08/25 00:32:18;;;;;;;4.30;4.00;;;24.80;56.00;;;;;;4953393;29;20506;-49
2022/08/25 00:34:44;;;;;;;4.63;4.23;;;24.60;56.40;;;;;;4952960;29;20200;-45
2022/08/25 00:37:10;;;;;;;4.60;4.20;;;24.40;56.80;;;;;;4953128;29;20192;-48
2022/08/25 00:39:37;;;;;;;4.00;3.70;;;24.30;57.10;;;;;;4952428;29;20203;-48
2022/08/25 00:42:04;;;;;;;4.00;3.70;;;24.30;57.10;;;;;;4953040;29;21013;-46
2022/08/25 00:44:32;;;;;;;4.60;4.20;;;24.30;57.10;;;;;;4952162;29;20442;-46
2022/08/25 00:46:59;;;;;;;4.03;3.73;;;24.20;57.30;;;;;;4951380;29;20455;-45
2022/08/25 00:49:46;;;;;;;4.20;3.80;;;24.20;57.50;;;;;;4952484;29;20428;-45
2022/08/25 00:52:24;;;;;;;7.00;3.60;;;24.20;57.60;;;;;;4953041;29;20943;-45
2022/08/25 00:54:55;;;;;;;4.77;4.37;;;24.10;57.80;;;;;;4952610;29;20435;-47
2022/08/25 00:57:50;;;;;;;4.43;4.10;;;24.20;57.60;;;;;;4953329;29;20459;-47
2022/08/25 01:00:31;;;;;;;9.80;4.20;;;24.30;57.40;;;;;;4931245;29;20483;-48
2022/08/25 01:02:57;;;;;;;4.00;3.60;;;24.30;57.30;;;;;;4952543;29;20494;-45
2022/08/25 01:05:25;;;;;;;4.23;3.63;;;24.20;57.50;;;;;;4952335;29;20458;-46
2022/08/25 01:07:51;;;;;;;4.73;4.43;;;24.10;57.60;;;;;;4952801;29;20482;-46
2022/08/25 01:10:20;;;;;;;4.13;3.73;;;24.20;57.70;;;;;;4952307;29;20459;-47
2022/08/25 01:12:45;;;;;;;4.37;4.07;;;24.00;58.20;;;;;;4952006;29;20530;-46
2022/08/25 01:15:12;;;;;;;3.80;3.50;;;23.90;58.30;;;;;;4950670;28;20899;-49
2022/08/25 01:17:49;;;;;;;4.80;4.40;;;23.80;58.40;;;;;;4952581;29;20728;-47
2022/08/25 01:20:18;;;;;;;4.07;3.77;;;23.90;58.50;;;;;;4952239;29;20782;-46
2022/08/25 01:22:44;;;;;;;4.40;3.93;;;24.00;58.30;;;;;;4952506;29;20542;-47
2022/08/25 01:25:43;;;;;;;6.77;4.83;;;24.00;58.20;;;;;;4951829;29;20441;-45
2022/08/25 01:28:09;;;;;;;5.20;4.50;;;24.10;58.10;;;;;;4952535;29;20483;-45
2022/08/25 01:30:35;;;;;;;4.37;4.07;;;24.00;58.20;;;;;;4951934;29;20929;-46
2022/08/25 01:33:06;;;;;;;4.17;3.87;;;23.90;58.40;;;;;;4952069;29;20210;-45
2022/08/25 01:35:32;;;;;;;4.30;3.90;;;23.80;58.60;;;;;;4953669;28;20443;-45
2022/08/25 01:37:59;;;;;;;4.17;3.73;;;23.80;58.60;;;;;;4956577;29;20431;-44
2022/08/25 01:40:25;;;;;;;4.20;3.90;;;23.80;58.70;;;;;;4954571;29;20802;-47
2022/08/25 01:43:13;;;;;;;4.80;4.40;;;23.80;58.80;;;;;;4955801;29;20589;-45
2022/08/25 01:45:42;;;;;;;4.80;4.23;;;23.80;58.80;;;;;;4955841;29;20200;-45
2022/08/25 01:48:09;;;;;;;5.17;4.33;;;23.60;58.90;;;;;;4939067;29;20444;-48
2022/08/25 01:50:35;;;;;;;6.00;4.00;;;23.70;58.90;;;;;;4955733;29;20490;-47
2022/08/25 01:53:10;;;;;;;4.77;4.37;;;23.80;58.80;;;;;;4955849;29;20436;-46
2022/08/25 01:55:52;;;;;;;4.33;4.03;;;23.80;58.50;;;;;;4955779;29;20439;-47
2022/08/25 01:58:25;;;;;;;4.40;4.00;;;23.70;58.70;;;;;;4956148;29;20470;-45
2022/08/25 02:00:54;;;;;;;4.77;4.37;;;23.70;58.70;;;;;;4955732;29;20420;-46
2022/08/25 02:03:20;;;;;;;5.83;4.77;;;23.50;59.30;;;;;;4955466;29;20479;-45
2022/08/25 02:05:46;;;;;;;5.13;4.73;;;23.50;59.40;;;;;;4955558;29;20523;-46
2022/08/25 02:08:12;;;;;;;5.53;5.03;;;23.50;59.40;;;;;;4954615;29;20192;-45
2022/08/25 02:10:39;;;;;;;5.40;4.90;;;23.50;59.50;;;;;;4955576;29;20430;-45
2022/08/25 02:13:05;;;;;;;4.80;4.30;;;23.60;59.50;;;;;;4955050;29;20240;-45
2022/08/25 02:15:31;;;;;;;5.90;5.40;;;23.60;59.50;;;;;;4955237;28;20456;-47
2022/08/25 02:17:58;;;;;;;4.57;4.27;;;23.60;59.20;;;;;;4956023;29;20483;-45
2022/08/25 02:20:25;;;;;;;7.90;5.03;;;23.60;59.30;;;;;;4955299;29;20450;-45
2022/08/25 02:22:51;;;;;;;6.23;5.23;;;23.70;59.10;;;;;;4955070;29;20493;-45
2022/08/25 02:25:18;;;;;;;5.33;4.13;;;23.80;58.80;;;;;;4955339;29;20435;-46
2022/08/25 02:27:44;;;;;;;4.80;4.40;;;23.90;58.40;;;;;;4955498;29;20423;-46
2022/08/25 02:30:12;;;;;;;4.60;4.30;;;24.00;58.00;;;;;;4955057;29;20478;-46
2022/08/25 02:32:38;;;;;;;5.33;4.30;;;24.10;57.70;;;;;;4955243;29;20436;-48
2022/08/25 02:35:05;;;;;;;4.83;4.47;;;24.20;57.50;;;;;;4953334;29;21193;-45
2022/08/25 02:37:31;;;;;;;5.07;4.67;;;24.20;57.40;;;;;;4955474;29;20196;-45
2022/08/25 02:39:56;;;;;;;4.20;3.80;;;24.20;57.30;;;;;;4954848;29;20483;-47
2022/08/25 02:42:23;;;;;;;4.90;4.50;;;24.20;57.10;;;;;;4955056;29;20223;-45
2022/08/25 02:44:49;;;;;;;5.10;4.70;;;24.20;57.10;;;;;;4955076;29;20192;-46
2022/08/25 02:47:15;;;;;;;5.50;5.10;;;24.20;57.30;;;;;;4954638;28;20427;-46
2022/08/25 02:49:41;;;;;;;5.30;4.90;;;24.10;57.40;;;;;;4954525;29;20403;-45
2022/08/25 02:52:07;;;;;;;4.97;4.47;;;24.20;57.40;;;;;;4955085;29;20527;-45
2022/08/25 02:54:33;;;;;;;6.03;5.53;;;24.10;57.40;;;;;;4954407;29;20608;-45
2022/08/25 02:56:59;;;;;;;5.90;5.30;;;24.20;57.40;;;;;;4954808;29;20283;-48
2022/08/25 02:59:24;;;;;;;5.30;4.80;;;24.10;57.40;;;;;;4954613;29;20846;-47
2022/08/25 03:01:50;;;;;;;5.70;5.10;;;24.20;57.30;;;;;;4953301;29;20680;-46
2022/08/25 03:04:16;;;;;;;5.87;4.90;;;24.20;57.10;;;;;;4954089;29;20196;-47
2022/08/25 03:06:42;;;;;;;4.80;4.40;;;24.20;57.20;;;;;;4954590;29;20227;-48
2022/08/25 03:09:07;;;;;;;4.20;3.90;;;23.90;58.10;;;;;;4954452;29;20862;-47
2022/08/25 03:11:33;;;;;;;7.30;5.07;;;23.70;58.50;;;;;;4954767;29;20695;-45
2022/08/25 03:13:59;;;;;;;5.17;4.70;;;23.50;59.10;;;;;;4954282;28;20240;-46
2022/08/25 03:16:24;;;;;;;7.30;5.37;;;23.50;59.30;;;;;;4954056;29;20196;-46
2022/08/25 03:18:50;;;;;;;7.30;5.03;;;23.40;59.50;;;;;;4954983;29;20206;-48
2022/08/25 03:21:16;;;;;;;5.07;4.60;;;23.40;59.50;;;;;;4954407;29;20192;-49
2022/08/25 03:23:42;;;;;;;5.00;4.50;;;23.40;59.20;;;;;;4954341;29;20232;-48
2022/08/25 03:28:54;;;;;;;5.27;4.77;;;23.20;59.60;;;;;;4953034;29;20791;-47
2022/08/25 03:31:21;;;;;;;5.13;4.67;;;23.30;59.40;;;;;;4953986;29;20786;-46
2022/08/25 03:33:46;;;;;;;4.97;4.50;;;23.30;59.50;;;;;;4954061;29;20792;-48
2022/08/25 03:36:13;;;;;;;5.47;4.97;;;23.40;59.20;;;;;;4954034;29;20428;-45
2022/08/25 03:38:40;;;;;;;5.07;4.57;;;23.50;58.90;;;;;;4954218;29;20464;-47
2022/08/25 03:41:17;;;;;;;4.90;4.50;;;23.60;59.10;;;;;;4953852;29;20436;-47
2022/08/25 03:43:43;;;;;;;5.40;4.83;;;23.60;58.40;;;;;;4953861;29;20966;-46
2022/08/25 03:46:16;;;;;;;4.73;4.33;;;23.70;58.30;;;;;;4953832;29;20423;-47
2022/08/25 03:48:41;;;;;;;5.47;4.97;;;23.70;58.20;;;;;;4953952;29;20435;-47
2022/08/25 03:51:07;;;;;;;4.50;4.20;;;23.60;58.10;;;;;;4953660;29;20978;-46
2022/08/25 03:53:33;;;;;;;6.03;5.43;;;23.60;58.00;;;;;;4953833;29;20188;-46
2022/08/25 03:55:59;;;;;;;5.30;4.90;;;23.60;57.90;;;;;;4951927;29;20199;-46
2022/08/25 03:58:24;;;;;;;5.63;5.13;;;23.60;57.90;;;;;;4953041;28;20675;-47
2022/08/25 04:00:50;;;;;;;5.40;4.90;;;23.70;57.80;;;;;;4953761;29;20658;-47
2022/08/25 04:03:17;;;;;;;5.17;4.67;;;23.60;57.60;;;;;;4953337;29;20223;-49
2022/08/25 04:05:42;;;;;;;5.97;5.37;;;23.60;57.80;;;;;;4953620;29;20200;-48
2022/08/25 04:08:08;;;;;;;5.70;5.20;;;23.50;57.80;;;;;;4953918;29;20965;-46
2022/08/25 04:10:35;;;;;;;5.60;5.10;;;23.50;57.80;;;;;;4953353;29;20191;-45
2022/08/25 04:13:01;;;;;;;6.00;5.50;;;23.50;57.80;;;;;;4953184;29;20287;-47
2022/08/25 04:15:27;;;;;;;5.67;5.20;;;23.50;58.00;;;;;;4952868;28;20432;-45
2022/08/25 04:17:53;;;;;;;6.43;5.67;;;23.50;58.10;;;;;;4953582;29;20911;-47
2022/08/25 04:20:20;;;;;;;5.60;5.10;;;23.50;58.00;;;;;;4953174;29;20432;-47
2022/08/25 04:22:46;;;;;;;8.50;5.60;;;23.50;58.10;;;;;;4951216;29;20839;-45
2022/08/25 04:25:12;;;;;;;5.77;5.27;;;23.40;58.30;;;;;;4952901;29;20459;-45
2022/08/25 04:27:37;;;;;;;5.63;5.13;;;23.40;59.10;;;;;;4953294;29;20195;-45
2022/08/25 04:30:05;;;;;;;9.80;4.93;;;23.30;58.60;;;;;;4952843;29;20199;-45
2022/08/25 04:32:31;;;;;;;4.97;4.47;;;23.40;58.60;;;;;;4952736;29;20200;-45
2022/08/25 04:34:57;;;;;;;5.20;4.73;;;23.40;58.30;;;;;;4952798;29;20439;-45
2022/08/25 04:37:22;;;;;;;5.03;4.50;;;23.40;58.00;;;;;;4952965;29;20431;-45
2022/08/25 04:39:48;;;;;;;6.47;5.10;;;23.40;57.70;;;;;;4952626;29;20235;-45
2022/08/25 04:42:13;;;;;;;6.13;5.10;;;23.40;57.40;;;;;;4952533;29;20854;-45
2022/08/25 04:44:40;;;;;;;5.23;4.80;;;23.40;57.20;;;;;;4952633;29;20191;-45
2022/08/25 04:47:05;;;;;;;4.90;4.50;;;23.40;57.30;;;;;;4952823;29;20559;-45
2022/08/25 04:49:31;;;;;;;8.87;4.67;;;23.40;57.40;;;;;;4950800;29;20448;-46
2022/08/25 04:51:58;;;;;;;6.37;5.77;;;23.30;57.50;;;;;;4952366;29;20656;-46
2022/08/25 04:54:23;;;;;;;5.93;5.43;;;23.20;57.80;;;;;;4952432;29;20204;-49
2022/08/25 04:56:50;;;;;;;6.00;5.40;;;23.20;58.00;;;;;;4953024;29;20492;-49
2022/08/25 04:59:17;;;;;;;5.90;5.40;;;23.20;58.10;;;;;;4952300;29;20187;-49
2022/08/25 05:01:45;;;;;;;6.60;5.13;;;23.20;58.20;;;;;;4952427;29;20432;-49
2022/08/25 05:04:12;;;;;;;5.53;5.10;;;23.20;58.20;;;;;;4951867;29;20794;-46
2022/08/25 05:06:38;;;;;;;6.97;6.27;;;23.10;58.90;;;;;;4952813;29;20431;-49
2022/08/25 05:09:04;;;;;;;7.53;6.30;;;23.10;59.00;;;;;;4952269;28;20439;-49
2022/08/25 05:11:30;;;;;;;7.73;5.83;;;23.10;58.80;;;;;;4952618;29;20196;-47
2022/08/25 05:13:56;;;;;;;7.30;5.57;;;23.20;58.70;;;;;;4952638;28;20471;-45
2022/08/25 05:16:24;;;;;;;6.23;5.60;;;23.00;59.30;;;;;;4950528;29;20567;-50
2022/08/25 05:18:51;;;;;;;6.20;5.70;;;23.00;59.30;;;;;;4952610;29;20523;-46
2022/08/25 05:21:20;;;;;;;7.37;5.60;;;23.00;59.70;;;;;;4952228;29;20428;-48
2022/08/25 05:23:46;;;;;;;5.87;5.27;;;22.80;60.20;;;;;;4952182;29;20491;-49
2022/08/25 05:26:19;;;;;;;23.53;7.10;;;22.50;61.40;;;;;;4951986;29;20432;-47
2022/08/25 05:28:46;;;;;;;7.17;6.03;;;22.40;62.20;;;;;;4952627;29;20431;-46
2022/08/25 05:31:13;;;;;;;9.20;5.77;;;22.50;62.00;;;;;;4952127;29;20913;-49
2022/08/25 05:33:40;;;;;;;7.20;5.97;;;22.60;61.70;;;;;;4951009;28;20474;-46
2022/08/25 05:36:08;;;;;;;6.43;5.83;;;22.70;61.70;;;;;;4952320;29;20489;-49
2022/08/25 05:38:34;;;;;;;7.10;6.40;;;22.60;62.00;;;;;;4952362;29;20440;-49
2022/08/25 05:41:03;;;;;;;6.90;6.30;;;22.50;62.30;;;;;;4952044;29;20978;-49
2022/08/25 05:43:30;;;;;;;7.13;6.43;;;22.70;62.20;;;;;;4950541;29;20254;-49
2022/08/25 05:45:56;;;;;;;7.07;6.23;;;22.80;61.80;;;;;;4951946;29;20819;-46
2022/08/25 05:48:23;;;;;;;7.10;6.50;;;22.80;61.90;;;;;;4952449;29;20837;-48
2022/08/25 05:50:53;;;;;;;6.73;6.13;;;22.90;62.00;;;;;;4952119;29;20432;-49
2022/08/25 05:53:21;;;;;;;6.73;6.00;;;23.00;61.70;;;;;;4952500;29;20439;-47
2022/08/25 05:55:46;;;;;;;7.80;7.00;;;22.90;61.90;;;;;;4952048;29;20431;-45
2022/08/25 05:58:12;;;;;;;7.07;6.17;;;22.80;62.70;;;;;;4952433;29;20428;-47
2022/08/25 06:00:38;;;;;;;8.53;7.37;;;22.70;63.60;;;;;;4951926;29;20188;-46
2022/08/25 06:03:04;;;;;;;7.30;6.70;;;22.80;63.30;;;;;;4951833;29;20278;-49
2022/08/25 06:05:31;;;;;;;9.20;6.70;;;23.00;62.60;;;;;;4951642;29;20454;-46
2022/08/25 06:07:57;;;;;;;8.07;6.73;;;23.20;62.00;;;;;;4952257;29;20196;-46
2022/08/25 06:10:22;;;;;;;7.20;6.50;;;23.30;61.70;;;;;;4950082;29;20467;-45
2022/08/25 06:12:48;;;;;;;7.17;6.47;;;23.50;61.20;;;;;;4952078;29;20514;-45
2022/08/25 06:15:20;;;;;;;8.10;5.97;;;23.70;60.70;;;;;;4951524;28;20612;-46
2022/08/25 06:17:46;;;;;;;7.03;6.27;;;23.80;60.20;;;;;;4951981;29;20864;-47
2022/08/25 06:20:15;;;;;;;6.83;6.23;;;24.00;60.10;;;;;;4951760;28;20431;-45
2022/08/25 06:22:42;;;;;;;8.00;6.40;;;24.30;59.10;;;;;;4954876;29;20601;-45
2022/08/25 06:25:09;;;;;;;6.77;6.27;;;24.50;58.60;;;;;;4954825;29;20432;-48
2022/08/25 06:27:35;;;;;;;9.67;6.70;;;24.70;58.20;;;;;;4955723;29;20459;-46
2022/08/25 06:30:03;;;;;;;7.73;7.03;;;24.80;57.80;;;;;;4954992;29;20970;-49
2022/08/25 06:32:34;;;;;;;9.63;7.10;;;24.90;57.50;;;;;;4955408;29;20471;-46
2022/08/25 06:35:01;;;;;;;7.90;7.17;;;25.00;57.20;;;;;;4955098;29;20436;-45
2022/08/25 06:37:27;;;;;;;8.63;7.77;;;25.20;56.90;;;;;;4953853;29;20797;-46
2022/08/25 06:39:52;;;;;;;6.93;6.23;;;25.40;56.40;;;;;;4955037;29;20432;-46
2022/08/25 06:42:18;;;;;;;8.00;7.27;;;25.40;56.60;;;;;;4953742;28;20306;-45
2022/08/25 06:44:44;;;;;;;8.00;7.20;;;25.50;56.40;;;;;;4954871;29;20200;-47
2022/08/25 06:47:10;;;;;;;8.93;8.03;;;25.60;56.20;;;;;;4955165;29;20224;-46
2022/08/25 06:49:35;;;;;;;8.13;7.33;;;25.90;55.70;;;;;;4954683;29;20242;-45
2022/08/25 06:52:01;;;;;;;8.67;7.23;;;25.80;55.70;;;;;;4954758;29;20196;-46
2022/08/25 06:54:27;;;;;;;8.00;7.23;;;25.80;55.90;;;;;;4954713;29;20275;-50
2022/08/25 06:56:53;;;;;;;7.50;6.73;;;26.00;55.70;;;;;;4954802;29;20515;-46
2022/08/25 06:59:18;;;;;;;8.23;7.53;;;26.30;55.20;;;;;;4954771;29;20259;-45
2022/08/25 07:01:44;;;;;;;7.60;6.83;;;26.60;54.40;;;;;;4954734;29;20259;-46
2022/08/25 07:04:10;;;;;;;7.67;6.80;;;26.80;54.20;;;;;;4952633;29;20215;-49
2022/08/25 07:06:36;;;;;;;7.20;6.40;;;26.90;53.60;;;;;;4954860;29;20196;-45
2022/08/25 07:09:07;;;;;;;6.87;6.17;;;27.10;53.10;;;;;;4954523;29;20439;-47
2022/08/25 07:11:34;;;;;;;6.70;6.10;;;27.40;52.70;;;;;;4954949;29;20223;-47
2022/08/25 07:14:01;;;;;;;7.87;7.00;;;27.60;52.40;;;;;;4954175;28;20979;-46
2022/08/25 07:16:27;;;;;;;7.77;7.00;;;27.70;52.10;;;;;;4954418;29;20526;-50
2022/08/25 07:18:55;;;;;;;7.87;7.10;;;27.80;51.90;;;;;;4954886;29;20538;-45
2022/08/25 07:21:22;;;;;;;6.73;6.23;;;27.70;51.30;;;;;;4954242;29;20227;-46
2022/08/25 07:23:48;;;;;;;7.40;6.80;;;27.60;51.40;;;;;;4954305;29;20578;-46
2022/08/25 07:26:23;;;;;;;7.30;6.70;;;27.70;51.70;;;;;;4953872;29;20438;-46
2022/08/25 07:28:50;;;;;;;7.20;6.60;;;27.90;51.20;;;;;;4954723;29;20195;-48
2022/08/25 07:31:16;;;;;;;7.27;6.67;;;28.10;51.20;;;;;;4952658;29;20436;-46
2022/08/25 07:35:14;;;;;;;6.30;5.80;;;28.10;50.50;;;;;;4954087;28;20439;-49
2022/08/25 07:36:27;;;;;;;6.70;6.20;;;28.20;50.20;;;;;;4954258;29;20251;-45
2022/08/25 07:38:53;;;;;;;6.90;6.30;;;28.30;49.90;;;;;;4954449;29;20769;-46
2022/08/25 07:41:19;;;;;;;7.00;6.07;;;28.60;49.40;;;;;;4953951;29;20446;-45
2022/08/25 07:43:46;;;;;;;6.20;5.70;;;28.80;49.10;;;;;;4953592;29;20971;-46
2022/08/25 07:46:12;;;;;;;6.60;6.00;;;29.00;48.50;;;;;;4953791;29;20199;-46
2022/08/25 07:48:37;;;;;;;6.43;5.77;;;29.20;48.40;;;;;;4954239;29;20432;-46
2022/08/25 07:51:08;;;;;;;7.63;6.60;;;29.10;48.10;;;;;;4954041;29;20942;-46
2022/08/25 07:53:34;;;;;;;6.60;6.10;;;29.30;48.30;;;;;;4953780;29;20227;-46
2022/08/25 07:55:59;;;;;;;7.97;7.27;;;29.10;48.20;;;;;;4953355;29;20471;-46
2022/08/25 07:58:25;;;;;;;6.23;5.73;;;29.20;48.30;;;;;;4952389;29;20560;-46
2022/08/25 08:00:52;;;;;;;6.63;6.03;;;29.20;47.80;;;;;;4953630;29;20306;-46
2022/08/25 08:03:19;;;;;;;7.30;6.60;;;29.20;47.90;;;;;;4953331;29;20579;-45
2022/08/25 08:05:46;;;;;;;6.37;5.87;;;29.40;47.60;;;;;;4953459;29;20487;-48
2022/08/25 08:08:12;;;;;;;6.80;6.27;;;29.50;47.40;;;;;;4954117;29;20506;-45
2022/08/25 08:10:41;;;;;;;6.90;6.20;;;29.60;47.70;;;;;;4953229;29;20804;-46
2022/08/25 08:13:08;;;;;;;6.50;5.90;;;29.70;47.10;;;;;;4953069;29;20491;-45
2022/08/25 08:15:35;;;;;;;7.07;6.47;;;30.00;47.10;;;;;;4953018;28;20440;-46
2022/08/25 08:18:01;;;;;;;6.13;5.63;;;30.10;46.10;;;;;;4953804;29;20423;-46
2022/08/25 08:20:28;;;;;;;6.30;5.80;;;30.20;45.90;;;;;;4953348;29;20502;-46
2022/08/25 08:22:54;;;;;;;7.07;6.47;;;30.20;45.70;;;;;;4952925;29;20900;-46
2022/08/25 08:25:20;;;;;;;7.17;6.53;;;30.30;45.60;;;;;;4951535;29;20466;-46
2022/08/25 08:27:45;;;;;;;7.27;5.87;;;30.50;45.30;;;;;;4953459;29;20195;-47
2022/08/25 08:30:12;;;;;;;7.10;6.50;;;30.70;45.00;;;;;;4952748;29;20443;-45
2022/08/25 08:32:38;;;;;;;6.10;5.50;;;30.90;44.80;;;;;;4952593;29;20614;-47
2022/08/25 08:35:04;;;;;;;6.80;6.20;;;30.70;44.60;;;;;;4952873;29;20459;-45
2022/08/25 08:37:30;;;;;;;7.27;6.57;;;30.50;45.00;;;;;;4953279;29;20206;-45
2022/08/25 08:40:00;;;;;;;6.93;6.30;;;29.90;45.90;;;;;;4952830;29;20876;-45
2022/08/25 08:42:34;;;;;;;7.20;5.43;;;30.10;46.30;;;;;;4952612;29;20853;-45
2022/08/25 08:45:21;;;;;;;6.77;6.20;;;30.30;45.30;;;;;;4952338;28;20752;-46
2022/08/25 08:48:04;;;;;;;6.73;6.13;;;30.10;45.90;;;;;;4953334;29;20443;-45
2022/08/25 08:50:48;;;;;;;6.50;6.00;;;30.20;45.60;;;;;;4952576;29;20436;-45
2022/08/25 08:53:22;;;;;;;6.50;6.00;;;30.50;45.20;;;;;;4951281;29;20440;-45
2022/08/25 08:55:52;;;;;;;6.43;5.93;;;30.50;45.00;;;;;;4952746;29;20496;-46
2022/08/25 08:58:43;;;;;;;5.97;5.37;;;30.40;45.50;;;;;;4953065;29;20466;-45
2022/08/25 09:01:12;;;;;;;6.33;5.73;;;30.70;44.40;;;;;;4945388;29;20919;-46
2022/08/25 09:03:45;;;;;;;7.00;6.50;;;30.50;44.90;;;;;;4952316;29;20543;-46
2022/08/25 09:06:22;;;;;;;7.23;6.43;;;30.50;45.00;;;;;;4952121;29;20466;-48
2022/08/25 09:08:49;;;;;;;6.83;6.20;;;30.50;44.60;;;;;;4953063;29;20518;-46
2022/08/25 09:12:08;;;;;;;6.10;5.60;;;30.60;44.90;;;;;;4952323;29;20432;-48
2022/08/25 09:15:02;;;;;;;7.33;5.80;;;30.80;44.50;;;;;;4892442;29;20474;-45
2022/08/25 09:17:45;;;;;;;6.17;5.67;;;31.20;43.70;;;;;;4951640;29;20540;-46
2022/08/25 09:20:17;;;;;;;6.47;5.87;;;31.60;43.40;;;;;;4951575;29;20483;-46
2022/08/25 09:22:50;;;;;;;6.30;5.70;;;31.80;42.40;;;;;;4951878;29;21270;-45
2022/08/25 09:25:34;;;;;;;6.50;5.90;;;31.90;42.50;;;;;;4952151;29;20435;-46
2022/08/25 09:28:19;;;;;;;6.70;6.10;;;31.90;42.50;;;;;;4952719;29;20446;-46
2022/08/25 09:31:00;;;;;;;6.37;5.83;;;31.80;42.30;;;;;;4952180;29;20946;-49
2022/08/25 09:33:30;;;;;;;5.57;5.10;;;32.00;42.00;;;;;;4952450;29;20428;-46
2022/08/25 09:35:56;;;;;;;6.23;5.50;;;32.20;41.20;;;;;;4952123;29;20819;-46
2022/08/25 09:38:23;;;;;;;6.57;6.07;;;32.40;40.80;;;;;;4952462;29;20435;-47
2022/08/25 09:40:54;;;;;;;6.70;6.13;;;32.30;40.80;;;;;;4951983;29;20440;-46
2022/08/25 09:43:33;;;;;;;6.33;5.80;;;31.90;41.50;;;;;;4951971;29;20499;-46
2022/08/25 09:46:04;;;;;;;5.70;5.30;;;31.70;41.50;;;;;;4950323;29;20471;-46
2022/08/25 09:48:49;;;;;;;5.67;5.17;;;31.90;41.50;;;;;;4952510;29;20446;-46
2022/08/25 09:51:25;;;;;;;6.73;6.10;;;32.00;41.00;;;;;;4951891;29;20501;-49
2022/08/25 09:53:59;;;;;;;6.00;5.50;;;32.00;40.40;;;;;;4951970;29;20447;-49
2022/08/25 09:56:30;;;;;;;6.10;5.60;;;32.20;40.80;;;;;;4953299;28;20435;-49
2022/08/25 09:59:16;;;;;;;6.60;5.27;;;32.00;40.10;;;;;;4956249;29;20432;-48
2022/08/25 10:01:48;;;;;;;5.93;5.43;;;31.90;40.40;;;;;;4955624;28;20424;-49
2022/08/25 10:04:24;;;;;;;5.50;4.97;;;31.90;40.30;;;;;;4955515;29;20439;-48
2022/08/25 10:06:49;;;;;;;6.03;4.83;;;32.10;39.70;;;;;;4956293;29;20479;-48
2022/08/25 10:09:28;;;;;;;6.20;5.10;;;32.40;38.90;;;;;;4955607;29;20431;-49
2022/08/25 10:11:55;;;;;;;6.07;5.47;;;32.80;38.40;;;;;;4953945;29;20298;-50
2022/08/25 10:14:35;;;;;;;6.17;5.13;;;33.10;38.00;;;;;;4955467;28;20891;-49
2022/08/25 10:17:23;;;;;;;5.47;5.07;;;33.60;37.10;;;;;;4955765;29;20530;-47
2022/08/25 10:19:54;;;;;;;6.13;5.63;;;34.00;37.00;;;;;;4955623;29;20439;-50
2022/08/25 10:22:31;;;;;;;5.80;5.40;;;34.30;36.20;;;;;;4955491;29;20494;-49
2022/08/25 10:24:58;;;;;;;5.77;5.27;;;34.60;36.80;;;;;;4955407;29;20503;-50
2022/08/25 10:27:41;;;;;;;5.53;5.20;;;34.80;36.10;;;;;;4955519;29;20550;-50
2022/08/25 10:30:37;;;;;;;5.60;5.10;;;35.20;35.00;;;;;;4955179;29;20494;-51
2022/08/25 10:33:05;;;;;;;5.70;5.30;;;35.20;34.70;;;;;;4945112;29;20518;-49
2022/08/25 10:36:09;;;;;;;5.40;4.93;;;35.50;34.40;;;;;;4954778;29;20499;-50
2022/08/25 10:38:42;;;;;;;5.87;5.47;;;35.50;34.20;;;;;;4894972;29;20846;-51
2022/08/25 10:41:17;;;;;;;5.53;5.10;;;35.80;33.50;;;;;;4947356;29;21001;-50
2022/08/25 10:43:48;;;;;;;6.30;5.80;;;35.70;33.40;;;;;;4955077;29;20491;-50
2022/08/25 10:46:22;;;;;;;5.20;4.80;;;35.40;33.90;;;;;;4954720;29;20424;-50
2022/08/25 10:49:33;;;;;;;5.73;5.23;;;35.40;34.10;;;;;;4955481;29;20431;-48
2022/08/25 10:52:06;;;;;;;5.80;5.40;;;35.60;33.50;;;;;;4954570;29;20447;-50
2022/08/25 10:54:45;;;;;;;5.23;4.83;;;36.10;33.30;;;;;;4954602;29;20493;-49
2022/08/25 10:57:33;;;;;;;5.60;5.13;;;36.30;32.50;;;;;;4955139;29;20442;-49
2022/08/25 11:00:12;;;;;;;6.50;5.87;;;36.50;32.10;;;;;;4954618;29;20442;-50
2022/08/25 11:03:00;;;;;;;5.03;4.73;;;36.50;31.90;;;;;;4954717;29;20864;-50
2022/08/25 11:05:35;;;;;;;5.57;5.17;;;36.60;32.10;;;;;;4953563;29;20923;-49
2022/08/25 11:08:19;;;;;;;5.23;4.83;;;36.70;31.40;;;;;;4954254;28;20474;-48
2022/08/25 11:10:48;;;;;;;5.47;4.97;;;37.00;30.80;;;;;;4954349;29;20998;-50
2022/08/25 11:13:49;;;;;;;5.27;4.77;;;37.10;30.50;;;;;;4954316;29;20582;-50
2022/08/25 11:16:18;;;;;;;5.20;4.80;;;37.30;30.70;;;;;;4950161;29;20511;-50
2022/08/25 11:18:56;;;;;;;5.20;4.80;;;37.30;30.60;;;;;;4954944;29;20881;-51
2022/08/25 11:21:48;;;;;;;7.43;4.87;;;37.10;30.30;;;;;;4953803;29;20439;-51
2022/08/25 11:24:28;;;;;;;5.43;5.00;;;36.80;31.30;;;;;;4954012;29;20542;-50
2022/08/25 11:26:56;;;;;;;5.10;4.70;;;37.30;31.00;;;;;;4954397;29;20443;-52
2022/08/25 11:29:25;;;;;;;4.90;4.30;;;37.70;30.30;;;;;;4954074;29;20905;-51
2022/08/25 11:31:53;;;;;;;4.60;4.23;;;37.80;29.90;;;;;;4954312;29;20514;-50
2022/08/25 11:34:20;;;;;;;5.10;4.70;;;38.10;29.70;;;;;;4952479;29;20476;-50
2022/08/25 11:36:56;;;;;;;5.53;5.10;;;38.30;29.20;;;;;;4954603;29;20438;-51
2022/08/25 11:39:25;;;;;;;4.60;4.20;;;38.30;29.00;;;;;;4953991;29;20443;-51
2022/08/25 11:42:34;;;;;;;4.90;4.60;;;38.30;29.20;;;;;;4954153;29;20435;-51
2022/08/25 11:45:35;;;;;;;5.10;4.70;;;38.50;29.00;;;;;;4953664;29;20535;-50
2022/08/25 11:48:09;;;;;;;5.37;4.87;;;38.60;28.80;;;;;;4901910;29;20850;-52
2022/08/25 11:50:53;;;;;;;4.60;4.30;;;38.60;28.80;;;;;;4953710;29;20431;-51
2022/08/25 11:53:26;;;;;;;4.77;4.47;;;38.60;28.70;;;;;;4953908;29;20447;-51
2022/08/25 11:55:55;;;;;;;5.10;4.67;;;38.80;28.70;;;;;;4953551;29;20434;-51
2022/08/25 11:58:31;;;;;;;5.07;4.57;;;38.80;28.40;;;;;;4954302;29;20923;-50
2022/08/25 12:00:59;;;;;;;4.73;4.33;;;38.50;28.70;;;;;;4952142;29;20427;-50
2022/08/25 12:03:30;;;;;;;4.70;4.40;;;38.20;28.90;;;;;;4953093;29;20907;-51
2022/08/25 12:06:20;;;;;;;4.50;4.20;;;38.40;28.60;;;;;;4953510;29;20481;-50
2022/08/25 12:09:11;;;;;;;5.00;4.60;;;38.50;28.40;;;;;;4943474;29;20534;-50
2022/08/25 12:11:37;;;;;;;5.00;4.50;;;38.50;28.50;;;;;;4944956;29;20443;-51
2022/08/25 12:14:21;;;;;;;4.43;3.90;;;38.10;28.70;;;;;;4953097;28;20475;-51
2022/08/25 12:16:55;;;;;;;4.23;3.93;;;38.20;29.20;;;;;;4943093;29;20195;-52
2022/08/25 12:19:33;;;;;;;4.40;4.10;;;38.30;29.10;;;;;;4952318;28;20445;-49
2022/08/25 12:22:01;;;;;;;3.93;3.73;;;38.30;28.60;;;;;;4953464;29;20818;-52
2022/08/25 12:24:42;;;;;;;4.30;4.00;;;37.80;28.80;;;;;;4953230;29;20428;-51
2022/08/25 12:27:26;;;;;;;4.20;3.90;;;37.40;29.90;;;;;;4951557;29;20806;-50
2022/08/25 12:30:11;;;;;;;4.53;4.13;;;37.10;29.50;;;;;;4953065;29;20430;-51
2022/08/25 12:33:07;;;;;;;4.77;4.37;;;37.40;29.30;;;;;;4952973;29;20450;-50
2022/08/25 12:35:36;;;;;;;4.20;3.80;;;37.40;29.40;;;;;;4952887;29;20434;-51
2022/08/25 12:38:07;;;;;;;4.57;4.20;;;37.30;29.20;;;;;;4953246;29;20806;-51
2022/08/25 12:40:38;;;;;;;4.77;4.23;;;36.50;29.90;;;;;;4952625;29;20474;-51
2022/08/25 12:43:23;;;;;;;4.20;3.90;;;36.70;29.80;;;;;;4952909;29;20947;-50
2022/08/25 12:46:13;;;;;;;5.40;4.00;;;36.90;29.50;;;;;;4953170;29;20533;-51
2022/08/25 12:48:57;;;;;;;5.10;4.60;;;36.70;29.90;;;;;;4952789;29;20436;-51
2022/08/25 12:51:42;;;;;;;3.97;3.77;;;37.10;29.50;;;;;;4952332;29;20935;-51
2022/08/25 12:54:15;;;;;;;4.90;4.60;;;37.20;29.30;;;;;;4951003;29;20428;-46
2022/08/25 12:56:45;;;;;;;3.60;3.40;;;36.20;30.20;;;;;;4952976;29;21206;-48
2022/08/25 12:59:18;;;;;;;4.53;4.23;;;36.10;30.20;;;;;;4952402;29;21292;-47
2022/08/25 13:02:06;;;;;;;3.80;3.50;;;36.20;30.00;;;;;;4952558;29;20427;-47
2022/08/25 13:04:56;;;;;;;4.70;4.40;;;36.40;29.80;;;;;;4952297;29;20446;-50
2022/08/25 13:07:48;;;;;;;3.93;3.73;;;36.80;29.70;;;;;;4952813;29;20470;-52
2022/08/25 13:10:17;;;;;;;3.77;3.47;;;36.90;29.20;;;;;;4952351;29;20986;-50